sensor_id;sensor_type;location;lat;lon;timestamp;P1;durP1;ratioP1;P2;durP2;ratioP2
43640;SDS011;72791;52.546;13.570;2023-12-20T00:01:55;10.60;;;6.18;;
43640;SDS011;72791;52.546;13.570;2023-12-20T00:04:21;8.95;;;6.57;;
43640;SDS011;72791;52.546;13.570;2023-12-20T00:06:46;9.70;;;6.20;;
43640;SDS011;72791;52.546;13.570;2023-12-20T00:09:12;9.73;;;6.22;;
43640;SDS011;72791;52.546;13.570;2023-12-20T00:11:38;8.48;;;5.72;;
43640;SDS011;72791;52.546;13.570;2023-12-20T00:14:03;8.90;;;6.05;;
43640;SDS011;72791;52.546;13.570;2023-12-20T00:16:29;9.48;;;6.53;;
43640;SDS011;72791;52.546;13.570;2023-12-20T00:18:56;8.88;;;6.07;;
43640;SDS011;72791;52.546;13.570;2023-12-20T00:21:22;8.23;;;5.18;;
43640;SDS011;72791;52.546;13.570;2023-12-20T00:23:48;9.05;;;5.97;;
43640;SDS011;72791;52.546;13.570;2023-12-20T00:26:14;7.00;;;5.22;;
43640;SDS011;72791;52.546;13.570;2023-12-20T00:28:40;7.05;;;5.05;;
43640;SDS011;72791;52.546;13.570;2023-12-20T00:31:07;8.55;;;5.75;;
43640;SDS011;72791;52.546;13.570;2023-12-20T00:33:33;8.50;;;5.80;;
43640;SDS011;72791;52.546;13.570;2023-12-20T00:35:59;8.57;;;5.72;;
43640;SDS011;72791;52.546;13.570;2023-12-20T00:38:25;9.50;;;5.22;;
43640;SDS011;72791;52.546;13.570;2023-12-20T00:40:50;9.13;;;5.80;;
43640;SDS011;72791;52.546;13.570;2023-12-20T00:43:16;7.30;;;5.22;;
43640;SDS011;72791;52.546;13.570;2023-12-20T00:45:42;8.82;;;6.10;;
43640;SDS011;72791;52.546;13.570;2023-12-20T00:48:07;8.13;;;5.85;;
43640;SDS011;72791;52.546;13.570;2023-12-20T00:50:33;8.25;;;5.40;;
43640;SDS011;72791;52.546;13.570;2023-12-20T00:53:00;7.07;;;5.15;;
43640;SDS011;72791;52.546;13.570;2023-12-20T00:55:26;8.60;;;5.63;;
43640;SDS011;72791;52.546;13.570;2023-12-20T00:57:51;7.32;;;5.20;;
43640;SDS011;72791;52.546;13.570;2023-12-20T01:00:18;9.55;;;5.90;;
43640;SDS011;72791;52.546;13.570;2023-12-20T01:02:44;5.97;;;4.38;;
43640;SDS011;72791;52.546;13.570;2023-12-20T01:05:12;9.35;;;6.47;;
43640;SDS011;72791;52.546;13.570;2023-12-20T01:07:37;8.48;;;5.50;;
43640;SDS011;72791;52.546;13.570;2023-12-20T01:10:03;7.63;;;5.43;;
43640;SDS011;72791;52.546;13.570;2023-12-20T01:12:30;8.43;;;6.00;;
43640;SDS011;72791;52.546;13.570;2023-12-20T01:14:56;8.63;;;5.20;;
43640;SDS011;72791;52.546;13.570;2023-12-20T01:17:23;8.88;;;5.53;;
43640;SDS011;72791;52.546;13.570;2023-12-20T01:19:49;9.30;;;5.53;;
43640;SDS011;72791;52.546;13.570;2023-12-20T01:22:15;7.82;;;5.90;;
43640;SDS011;72791;52.546;13.570;2023-12-20T01:24:40;9.80;;;6.45;;
43640;SDS011;72791;52.546;13.570;2023-12-20T01:27:06;8.20;;;5.53;;
43640;SDS011;72791;52.546;13.570;2023-12-20T01:29:31;7.30;;;5.07;;
43640;SDS011;72791;52.546;13.570;2023-12-20T01:31:57;7.63;;;5.20;;
43640;SDS011;72791;52.546;13.570;2023-12-20T01:34:23;8.38;;;5.65;;
43640;SDS011;72791;52.546;13.570;2023-12-20T01:36:49;8.82;;;6.13;;
43640;SDS011;72791;52.546;13.570;2023-12-20T01:39:14;10.02;;;6.82;;
43640;SDS011;72791;52.546;13.570;2023-12-20T01:41:40;10.32;;;6.20;;
43640;SDS011;72791;52.546;13.570;2023-12-20T01:44:06;9.27;;;5.95;;
43640;SDS011;72791;52.546;13.570;2023-12-20T01:46:31;8.57;;;5.68;;
43640;SDS011;72791;52.546;13.570;2023-12-20T01:48:57;8.95;;;5.72;;
43640;SDS011;72791;52.546;13.570;2023-12-20T01:51:24;8.73;;;5.53;;
43640;SDS011;72791;52.546;13.570;2023-12-20T01:53:52;7.70;;;5.57;;
43640;SDS011;72791;52.546;13.570;2023-12-20T01:56:19;8.15;;;5.03;;
43640;SDS011;72791;52.546;13.570;2023-12-20T01:58:46;8.98;;;5.75;;
43640;SDS011;72791;52.546;13.570;2023-12-20T02:01:13;7.53;;;4.50;;
43640;SDS011;72791;52.546;13.570;2023-12-20T02:03:43;6.75;;;4.38;;
43640;SDS011;72791;52.546;13.570;2023-12-20T02:06:09;6.15;;;4.25;;
43640;SDS011;72791;52.546;13.570;2023-12-20T02:08:35;6.72;;;4.55;;
43640;SDS011;72791;52.546;13.570;2023-12-20T02:11:01;7.43;;;4.88;;
43640;SDS011;72791;52.546;13.570;2023-12-20T02:13:27;10.82;;;5.30;;
43640;SDS011;72791;52.546;13.570;2023-12-20T02:15:53;9.20;;;5.03;;
43640;SDS011;72791;52.546;13.570;2023-12-20T02:18:19;7.00;;;4.78;;
43640;SDS011;72791;52.546;13.570;2023-12-20T02:20:45;7.65;;;4.45;;
43640;SDS011;72791;52.546;13.570;2023-12-20T02:23:11;5.60;;;4.00;;
43640;SDS011;72791;52.546;13.570;2023-12-20T02:25:36;6.47;;;3.70;;
43640;SDS011;72791;52.546;13.570;2023-12-20T02:28:02;7.90;;;4.13;;
43640;SDS011;72791;52.546;13.570;2023-12-20T02:30:31;5.43;;;3.83;;
43640;SDS011;72791;52.546;13.570;2023-12-20T02:33:00;6.30;;;3.60;;
43640;SDS011;72791;52.546;13.570;2023-12-20T02:35:28;6.13;;;3.75;;
43640;SDS011;72791;52.546;13.570;2023-12-20T02:37:55;7.07;;;3.70;;
43640;SDS011;72791;52.546;13.570;2023-12-20T02:40:21;5.47;;;3.78;;
43640;SDS011;72791;52.546;13.570;2023-12-20T02:42:46;7.05;;;4.13;;
43640;SDS011;72791;52.546;13.570;2023-12-20T02:45:14;7.53;;;3.20;;
43640;SDS011;72791;52.546;13.570;2023-12-20T02:47:41;5.00;;;2.75;;
43640;SDS011;72791;52.546;13.570;2023-12-20T02:50:07;3.88;;;2.58;;
43640;SDS011;72791;52.546;13.570;2023-12-20T02:52:36;7.03;;;2.60;;
43640;SDS011;72791;52.546;13.570;2023-12-20T02:55:02;3.55;;;2.10;;
43640;SDS011;72791;52.546;13.570;2023-12-20T02:57:27;9.68;;;3.10;;
43640;SDS011;72791;52.546;13.570;2023-12-20T02:59:53;5.35;;;3.10;;
43640;SDS011;72791;52.546;13.570;2023-12-20T03:02:19;6.07;;;2.80;;
43640;SDS011;72791;52.546;13.570;2023-12-20T03:04:44;5.25;;;3.05;;
43640;SDS011;72791;52.546;13.570;2023-12-20T03:07:10;3.55;;;2.30;;
43640;SDS011;72791;52.546;13.570;2023-12-20T03:09:37;4.50;;;2.50;;
43640;SDS011;72791;52.546;13.570;2023-12-20T03:12:03;6.10;;;2.60;;
43640;SDS011;72791;52.546;13.570;2023-12-20T03:14:29;5.07;;;2.80;;
43640;SDS011;72791;52.546;13.570;2023-12-20T03:16:55;7.32;;;3.15;;
43640;SDS011;72791;52.546;13.570;2023-12-20T03:19:22;8.27;;;3.08;;
43640;SDS011;72791;52.546;13.570;2023-12-20T03:21:49;5.65;;;2.97;;
43640;SDS011;72791;52.546;13.570;2023-12-20T03:24:17;6.20;;;2.88;;
43640;SDS011;72791;52.546;13.570;2023-12-20T03:26:43;5.43;;;2.42;;
43640;SDS011;72791;52.546;13.570;2023-12-20T03:29:09;7.97;;;2.65;;
43640;SDS011;72791;52.546;13.570;2023-12-20T03:31:35;7.32;;;2.38;;
43640;SDS011;72791;52.546;13.570;2023-12-20T03:34:00;8.80;;;2.70;;
43640;SDS011;72791;52.546;13.570;2023-12-20T03:36:26;4.32;;;2.10;;
43640;SDS011;72791;52.546;13.570;2023-12-20T03:38:51;4.00;;;2.17;;
43640;SDS011;72791;52.546;13.570;2023-12-20T03:41:17;10.05;;;2.67;;
43640;SDS011;72791;52.546;13.570;2023-12-20T03:43:43;6.75;;;2.45;;
43640;SDS011;72791;52.546;13.570;2023-12-20T03:46:09;7.22;;;2.58;;
43640;SDS011;72791;52.546;13.570;2023-12-20T03:48:36;6.18;;;3.22;;
43640;SDS011;72791;52.546;13.570;2023-12-20T03:51:02;9.07;;;2.33;;
43640;SDS011;72791;52.546;13.570;2023-12-20T03:53:27;8.60;;;2.25;;
43640;SDS011;72791;52.546;13.570;2023-12-20T03:55:53;5.22;;;2.50;;
43640;SDS011;72791;52.546;13.570;2023-12-20T03:58:19;7.22;;;2.58;;
43640;SDS011;72791;52.546;13.570;2023-12-20T04:00:44;9.10;;;2.65;;
43640;SDS011;72791;52.546;13.570;2023-12-20T04:03:10;6.72;;;1.90;;
43640;SDS011;72791;52.546;13.570;2023-12-20T04:05:39;6.72;;;2.67;;
43640;SDS011;72791;52.546;13.570;2023-12-20T04:08:06;9.25;;;2.55;;
43640;SDS011;72791;52.546;13.570;2023-12-20T04:10:33;5.68;;;2.17;;
43640;SDS011;72791;52.546;13.570;2023-12-20T04:12:59;7.35;;;3.20;;
43640;SDS011;72791;52.546;13.570;2023-12-20T04:15:26;14.50;;;2.88;;
43640;SDS011;72791;52.546;13.570;2023-12-20T04:17:52;12.73;;;2.67;;
43640;SDS011;72791;52.546;13.570;2023-12-20T04:20:17;4.45;;;2.75;;
43640;SDS011;72791;52.546;13.570;2023-12-20T04:22:44;9.45;;;2.55;;
43640;SDS011;72791;52.546;13.570;2023-12-20T04:25:14;10.93;;;2.63;;
43640;SDS011;72791;52.546;13.570;2023-12-20T04:27:40;6.88;;;2.60;;
43640;SDS011;72791;52.546;13.570;2023-12-20T04:30:06;4.65;;;2.42;;
43640;SDS011;72791;52.546;13.570;2023-12-20T04:32:32;10.00;;;6.18;;
43640;SDS011;72791;52.546;13.570;2023-12-20T04:34:58;8.38;;;2.17;;
43640;SDS011;72791;52.546;13.570;2023-12-20T04:37:29;9.75;;;2.38;;
43640;SDS011;72791;52.546;13.570;2023-12-20T04:39:55;7.82;;;3.03;;
43640;SDS011;72791;52.546;13.570;2023-12-20T04:42:22;13.15;;;4.53;;
43640;SDS011;72791;52.546;13.570;2023-12-20T04:44:49;8.63;;;2.25;;
43640;SDS011;72791;52.546;13.570;2023-12-20T04:47:17;8.82;;;2.78;;
43640;SDS011;72791;52.546;13.570;2023-12-20T04:49:43;9.10;;;2.30;;
43640;SDS011;72791;52.546;13.570;2023-12-20T04:52:09;7.65;;;2.22;;
43640;SDS011;72791;52.546;13.570;2023-12-20T04:54:36;8.75;;;2.58;;
43640;SDS011;72791;52.546;13.570;2023-12-20T04:57:02;11.90;;;2.50;;
43640;SDS011;72791;52.546;13.570;2023-12-20T04:59:27;6.32;;;2.92;;
43640;SDS011;72791;52.546;13.570;2023-12-20T05:01:53;8.70;;;2.15;;
43640;SDS011;72791;52.546;13.570;2023-12-20T05:04:20;7.47;;;2.28;;
43640;SDS011;72791;52.546;13.570;2023-12-20T05:06:47;5.18;;;2.75;;
43640;SDS011;72791;52.546;13.570;2023-12-20T05:09:14;7.75;;;2.10;;
43640;SDS011;72791;52.546;13.570;2023-12-20T05:11:41;7.28;;;1.90;;
43640;SDS011;72791;52.546;13.570;2023-12-20T05:14:08;8.63;;;2.03;;
43640;SDS011;72791;52.546;13.570;2023-12-20T05:16:35;12.32;;;3.78;;
43640;SDS011;72791;52.546;13.570;2023-12-20T05:19:02;9.65;;;2.85;;
43640;SDS011;72791;52.546;13.570;2023-12-20T05:21:32;15.90;;;3.05;;
43640;SDS011;72791;52.546;13.570;2023-12-20T05:23:59;8.00;;;2.70;;
43640;SDS011;72791;52.546;13.570;2023-12-20T05:26:25;13.63;;;2.50;;
43640;SDS011;72791;52.546;13.570;2023-12-20T05:28:51;13.65;;;2.63;;
43640;SDS011;72791;52.546;13.570;2023-12-20T05:31:17;6.57;;;2.40;;
43640;SDS011;72791;52.546;13.570;2023-12-20T05:33:43;8.65;;;2.28;;
43640;SDS011;72791;52.546;13.570;2023-12-20T05:36:09;9.20;;;3.45;;
43640;SDS011;72791;52.546;13.570;2023-12-20T05:38:36;7.70;;;2.50;;
43640;SDS011;72791;52.546;13.570;2023-12-20T05:41:02;9.68;;;3.63;;
43640;SDS011;72791;52.546;13.570;2023-12-20T05:43:29;9.93;;;2.40;;
43640;SDS011;72791;52.546;13.570;2023-12-20T05:45:55;10.07;;;3.00;;
43640;SDS011;72791;52.546;13.570;2023-12-20T05:48:21;10.85;;;2.53;;
43640;SDS011;72791;52.546;13.570;2023-12-20T05:50:46;10.80;;;4.03;;
43640;SDS011;72791;52.546;13.570;2023-12-20T05:53:15;8.25;;;2.97;;
43640;SDS011;72791;52.546;13.570;2023-12-20T05:55:41;7.28;;;2.67;;
43640;SDS011;72791;52.546;13.570;2023-12-20T05:58:06;12.00;;;3.22;;
43640;SDS011;72791;52.546;13.570;2023-12-20T06:00:32;12.43;;;3.17;;
43640;SDS011;72791;52.546;13.570;2023-12-20T06:02:58;13.82;;;3.28;;
43640;SDS011;72791;52.546;13.570;2023-12-20T06:05:24;10.82;;;2.70;;
43640;SDS011;72791;52.546;13.570;2023-12-20T06:07:51;11.57;;;2.42;;
43640;SDS011;72791;52.546;13.570;2023-12-20T06:10:17;6.95;;;1.98;;
43640;SDS011;72791;52.546;13.570;2023-12-20T06:12:45;15.38;;;2.90;;
43640;SDS011;72791;52.546;13.570;2023-12-20T06:15:14;10.75;;;3.22;;
43640;SDS011;72791;52.546;13.570;2023-12-20T06:17:39;9.23;;;2.33;;
43640;SDS011;72791;52.546;13.570;2023-12-20T06:20:06;6.10;;;2.38;;
43640;SDS011;72791;52.546;13.570;2023-12-20T06:22:34;7.53;;;2.10;;
43640;SDS011;72791;52.546;13.570;2023-12-20T06:25:02;10.20;;;2.70;;
43640;SDS011;72791;52.546;13.570;2023-12-20T06:27:28;12.63;;;2.45;;
43640;SDS011;72791;52.546;13.570;2023-12-20T06:29:55;11.45;;;3.10;;
43640;SDS011;72791;52.546;13.570;2023-12-20T06:32:21;12.43;;;2.50;;
43640;SDS011;72791;52.546;13.570;2023-12-20T06:46:55;8.68;;;2.92;;
43640;SDS011;72791;52.546;13.570;2023-12-20T06:49:21;11.98;;;2.40;;
43640;SDS011;72791;52.546;13.570;2023-12-20T06:51:47;8.82;;;2.22;;
43640;SDS011;72791;52.546;13.570;2023-12-20T06:54:13;5.80;;;2.33;;
43640;SDS011;72791;52.546;13.570;2023-12-20T06:56:39;7.88;;;1.75;;
43640;SDS011;72791;52.546;13.570;2023-12-20T06:59:04;4.60;;;2.10;;
43640;SDS011;72791;52.546;13.570;2023-12-20T07:01:32;6.18;;;1.90;;
43640;SDS011;72791;52.546;13.570;2023-12-20T07:03:58;6.25;;;2.30;;
43640;SDS011;72791;52.546;13.570;2023-12-20T07:06:24;6.18;;;2.40;;
43640;SDS011;72791;52.546;13.570;2023-12-20T07:08:52;14.38;;;2.47;;
43640;SDS011;72791;52.546;13.570;2023-12-20T07:11:19;8.20;;;3.33;;
43640;SDS011;72791;52.546;13.570;2023-12-20T07:13:45;12.43;;;2.80;;
43640;SDS011;72791;52.546;13.570;2023-12-20T07:16:11;9.80;;;2.65;;
43640;SDS011;72791;52.546;13.570;2023-12-20T07:18:38;8.52;;;2.17;;
43640;SDS011;72791;52.546;13.570;2023-12-20T07:21:04;8.60;;;3.00;;
43640;SDS011;72791;52.546;13.570;2023-12-20T07:23:30;6.75;;;2.47;;
43640;SDS011;72791;52.546;13.570;2023-12-20T07:25:55;12.57;;;2.60;;
43640;SDS011;72791;52.546;13.570;2023-12-20T07:28:21;7.88;;;2.75;;
43640;SDS011;72791;52.546;13.570;2023-12-20T07:30:48;11.05;;;2.83;;
43640;SDS011;72791;52.546;13.570;2023-12-20T07:33:14;9.25;;;3.10;;
43640;SDS011;72791;52.546;13.570;2023-12-20T07:35:43;7.25;;;3.78;;
43640;SDS011;72791;52.546;13.570;2023-12-20T07:38:10;8.63;;;2.53;;
43640;SDS011;72791;52.546;13.570;2023-12-20T07:40:37;8.52;;;3.45;;
43640;SDS011;72791;52.546;13.570;2023-12-20T07:43:04;7.55;;;2.75;;
43640;SDS011;72791;52.546;13.570;2023-12-20T07:45:31;10.15;;;2.78;;
43640;SDS011;72791;52.546;13.570;2023-12-20T07:47:58;10.60;;;3.03;;
43640;SDS011;72791;52.546;13.570;2023-12-20T07:50:24;8.63;;;2.63;;
43640;SDS011;72791;52.546;13.570;2023-12-20T07:52:52;9.02;;;2.72;;
43640;SDS011;72791;52.546;13.570;2023-12-20T07:55:18;10.75;;;2.50;;
43640;SDS011;72791;52.546;13.570;2023-12-20T07:57:44;9.00;;;3.50;;
43640;SDS011;72791;52.546;13.570;2023-12-20T08:00:09;11.85;;;2.60;;
43640;SDS011;72791;52.546;13.570;2023-12-20T08:02:36;6.65;;;2.78;;
43640;SDS011;72791;52.546;13.570;2023-12-20T08:05:01;13.18;;;2.55;;
43640;SDS011;72791;52.546;13.570;2023-12-20T08:07:27;9.50;;;3.13;;
43640;SDS011;72791;52.546;13.570;2023-12-20T08:09:53;8.23;;;2.40;;
43640;SDS011;72791;52.546;13.570;2023-12-20T08:12:20;12.00;;;2.28;;
43640;SDS011;72791;52.546;13.570;2023-12-20T08:14:48;8.30;;;2.83;;
43640;SDS011;72791;52.546;13.570;2023-12-20T08:17:14;11.55;;;3.92;;
43640;SDS011;72791;52.546;13.570;2023-12-20T08:19:44;10.55;;;2.78;;
43640;SDS011;72791;52.546;13.570;2023-12-20T08:22:10;7.78;;;2.53;;
43640;SDS011;72791;52.546;13.570;2023-12-20T08:24:36;9.15;;;2.83;;
43640;SDS011;72791;52.546;13.570;2023-12-20T08:27:03;6.75;;;3.13;;
43640;SDS011;72791;52.546;13.570;2023-12-20T08:29:32;9.18;;;2.33;;
43640;SDS011;72791;52.546;13.570;2023-12-20T08:31:59;7.82;;;2.90;;
43640;SDS011;72791;52.546;13.570;2023-12-20T08:34:25;9.98;;;2.67;;
43640;SDS011;72791;52.546;13.570;2023-12-20T08:36:51;10.70;;;2.75;;
43640;SDS011;72791;52.546;13.570;2023-12-20T08:39:17;4.05;;;2.03;;
43640;SDS011;72791;52.546;13.570;2023-12-20T08:41:42;9.73;;;2.70;;
43640;SDS011;72791;52.546;13.570;2023-12-20T08:44:08;5.78;;;2.50;;
43640;SDS011;72791;52.546;13.570;2023-12-20T08:46:35;6.45;;;2.30;;
43640;SDS011;72791;52.546;13.570;2023-12-20T08:49:01;14.15;;;3.35;;
43640;SDS011;72791;52.546;13.570;2023-12-20T08:51:27;4.68;;;2.33;;
43640;SDS011;72791;52.546;13.570;2023-12-20T08:53:54;9.00;;;2.35;;
43640;SDS011;72791;52.546;13.570;2023-12-20T08:56:20;6.05;;;2.17;;
43640;SDS011;72791;52.546;13.570;2023-12-20T08:58:45;5.68;;;2.05;;
43640;SDS011;72791;52.546;13.570;2023-12-20T09:01:12;8.32;;;2.47;;
43640;SDS011;72791;52.546;13.570;2023-12-20T09:03:38;8.10;;;2.15;;
43640;SDS011;72791;52.546;13.570;2023-12-20T09:06:04;5.32;;;2.47;;
43640;SDS011;72791;52.546;13.570;2023-12-20T09:08:30;9.93;;;2.08;;
43640;SDS011;72791;52.546;13.570;2023-12-20T09:10:57;11.93;;;2.90;;
43640;SDS011;72791;52.546;13.570;2023-12-20T09:13:22;4.28;;;2.25;;
43640;SDS011;72791;52.546;13.570;2023-12-20T09:15:57;5.85;;;2.00;;
43640;SDS011;72791;52.546;13.570;2023-12-20T09:18:23;11.52;;;2.75;;
43640;SDS011;72791;52.546;13.570;2023-12-20T09:20:49;8.55;;;2.55;;
43640;SDS011;72791;52.546;13.570;2023-12-20T09:23:15;8.93;;;2.95;;
43640;SDS011;72791;52.546;13.570;2023-12-20T09:25:43;11.02;;;2.55;;
43640;SDS011;72791;52.546;13.570;2023-12-20T09:28:09;10.85;;;2.40;;
43640;SDS011;72791;52.546;13.570;2023-12-20T09:30:35;11.25;;;2.03;;
43640;SDS011;72791;52.546;13.570;2023-12-20T09:33:04;11.70;;;2.97;;
43640;SDS011;72791;52.546;13.570;2023-12-20T09:35:32;5.10;;;2.47;;
43640;SDS011;72791;52.546;13.570;2023-12-20T09:37:57;5.53;;;2.45;;
43640;SDS011;72791;52.546;13.570;2023-12-20T09:40:23;10.50;;;2.70;;
43640;SDS011;72791;52.546;13.570;2023-12-20T09:42:58;7.60;;;2.53;;
43640;SDS011;72791;52.546;13.570;2023-12-20T09:45:30;7.18;;;2.97;;
43640;SDS011;72791;52.546;13.570;2023-12-20T09:47:57;4.68;;;2.25;;
43640;SDS011;72791;52.546;13.570;2023-12-20T09:50:23;6.47;;;2.33;;
43640;SDS011;72791;52.546;13.570;2023-12-20T09:52:51;10.07;;;2.45;;
43640;SDS011;72791;52.546;13.570;2023-12-20T09:55:23;8.70;;;2.67;;
43640;SDS011;72791;52.546;13.570;2023-12-20T09:57:51;8.60;;;2.70;;
43640;SDS011;72791;52.546;13.570;2023-12-20T10:00:18;7.78;;;2.10;;
43640;SDS011;72791;52.546;13.570;2023-12-20T10:03:05;8.15;;;2.38;;
43640;SDS011;72791;52.546;13.570;2023-12-20T10:05:31;8.23;;;2.47;;
43640;SDS011;72791;52.546;13.570;2023-12-20T10:07:59;6.22;;;2.67;;
43640;SDS011;72791;52.546;13.570;2023-12-20T10:10:26;8.00;;;2.38;;
43640;SDS011;72791;52.546;13.570;2023-12-20T10:13:05;9.13;;;2.63;;
43640;SDS011;72791;52.546;13.570;2023-12-20T10:15:35;9.15;;;2.78;;
43640;SDS011;72791;52.546;13.570;2023-12-20T10:18:02;11.00;;;2.47;;
43640;SDS011;72791;52.546;13.570;2023-12-20T10:20:28;6.82;;;2.50;;
43640;SDS011;72791;52.546;13.570;2023-12-20T10:22:55;9.77;;;2.78;;
43640;SDS011;72791;52.546;13.570;2023-12-20T10:25:21;8.25;;;2.55;;
43640;SDS011;72791;52.546;13.570;2023-12-20T10:27:47;14.25;;;2.90;;
43640;SDS011;72791;52.546;13.570;2023-12-20T10:30:17;5.50;;;2.22;;
43640;SDS011;72791;52.546;13.570;2023-12-20T10:32:43;12.82;;;2.72;;
43640;SDS011;72791;52.546;13.570;2023-12-20T10:35:08;9.70;;;2.50;;
43640;SDS011;72791;52.546;13.570;2023-12-20T10:37:35;6.88;;;2.03;;
43640;SDS011;72791;52.546;13.570;2023-12-20T10:40:03;5.70;;;2.40;;
43640;SDS011;72791;52.546;13.570;2023-12-20T10:42:31;10.90;;;2.65;;
43640;SDS011;72791;52.546;13.570;2023-12-20T10:44:59;12.10;;;3.10;;
43640;SDS011;72791;52.546;13.570;2023-12-20T10:47:27;11.65;;;2.78;;
43640;SDS011;72791;52.546;13.570;2023-12-20T10:49:57;8.02;;;2.95;;
43640;SDS011;72791;52.546;13.570;2023-12-20T10:52:24;8.50;;;3.75;;
43640;SDS011;72791;52.546;13.570;2023-12-20T10:54:52;12.23;;;2.70;;
43640;SDS011;72791;52.546;13.570;2023-12-20T10:57:20;7.18;;;3.38;;
43640;SDS011;72791;52.546;13.570;2023-12-20T10:59:50;11.60;;;1.92;;
43640;SDS011;72791;52.546;13.570;2023-12-20T11:02:19;10.63;;;2.30;;
43640;SDS011;72791;52.546;13.570;2023-12-20T11:04:51;9.48;;;2.60;;
43640;SDS011;72791;52.546;13.570;2023-12-20T11:07:44;11.85;;;2.30;;
43640;SDS011;72791;52.546;13.570;2023-12-20T11:10:17;12.68;;;3.40;;
43640;SDS011;72791;52.546;13.570;2023-12-20T11:15:23;10.23;;;2.70;;
43640;SDS011;72791;52.546;13.570;2023-12-20T11:17:55;9.70;;;2.83;;
43640;SDS011;72791;52.546;13.570;2023-12-20T11:20:22;12.18;;;3.08;;
43640;SDS011;72791;52.546;13.570;2023-12-20T11:22:52;11.00;;;3.28;;
43640;SDS011;72791;52.546;13.570;2023-12-20T11:25:20;9.82;;;2.65;;
43640;SDS011;72791;52.546;13.570;2023-12-20T11:28:06;11.05;;;3.20;;
43640;SDS011;72791;52.546;13.570;2023-12-20T11:30:50;11.32;;;2.65;;
43640;SDS011;72791;52.546;13.570;2023-12-20T11:33:17;8.05;;;2.53;;
43640;SDS011;72791;52.546;13.570;2023-12-20T11:35:50;5.78;;;2.70;;
43640;SDS011;72791;52.546;13.570;2023-12-20T11:38:16;7.30;;;2.40;;
43640;SDS011;72791;52.546;13.570;2023-12-20T11:40:45;7.95;;;2.58;;
43640;SDS011;72791;52.546;13.570;2023-12-20T11:46:19;11.90;;;3.90;;
43640;SDS011;72791;52.546;13.570;2023-12-20T11:48:46;8.70;;;3.10;;
43640;SDS011;72791;52.546;13.570;2023-12-20T11:51:13;9.45;;;3.05;;
43640;SDS011;72791;52.546;13.570;2023-12-20T11:53:40;7.00;;;2.75;;
43640;SDS011;72791;52.546;13.570;2023-12-20T11:56:08;5.88;;;2.65;;
43640;SDS011;72791;52.546;13.570;2023-12-20T11:58:35;13.95;;;3.20;;
43640;SDS011;72791;52.546;13.570;2023-12-20T12:01:02;9.13;;;2.53;;
43640;SDS011;72791;52.546;13.570;2023-12-20T12:03:29;9.07;;;2.70;;
43640;SDS011;72791;52.546;13.570;2023-12-20T12:05:55;10.95;;;2.75;;
43640;SDS011;72791;52.546;13.570;2023-12-20T12:08:21;8.77;;;2.88;;
43640;SDS011;72791;52.546;13.570;2023-12-20T12:10:47;9.85;;;3.25;;
43640;SDS011;72791;52.546;13.570;2023-12-20T12:13:13;9.73;;;3.15;;
43640;SDS011;72791;52.546;13.570;2023-12-20T12:15:42;9.82;;;2.45;;
43640;SDS011;72791;52.546;13.570;2023-12-20T12:18:08;8.85;;;2.55;;
43640;SDS011;72791;52.546;13.570;2023-12-20T12:20:35;9.40;;;2.38;;
43640;SDS011;72791;52.546;13.570;2023-12-20T12:23:04;3.92;;;2.38;;
43640;SDS011;72791;52.546;13.570;2023-12-20T12:25:31;5.82;;;1.92;;
43640;SDS011;72791;52.546;13.570;2023-12-20T12:28:00;9.95;;;2.97;;
43640;SDS011;72791;52.546;13.570;2023-12-20T12:30:26;5.28;;;2.33;;
43640;SDS011;72791;52.546;13.570;2023-12-20T12:32:52;9.35;;;2.70;;
43640;SDS011;72791;52.546;13.570;2023-12-20T12:35:19;7.78;;;2.45;;
43640;SDS011;72791;52.546;13.570;2023-12-20T12:37:45;8.35;;;2.50;;
43640;SDS011;72791;52.546;13.570;2023-12-20T12:40:14;6.97;;;2.95;;
43640;SDS011;72791;52.546;13.570;2023-12-20T12:42:44;10.98;;;2.67;;
43640;SDS011;72791;52.546;13.570;2023-12-20T12:45:10;10.93;;;2.90;;
43640;SDS011;72791;52.546;13.570;2023-12-20T12:47:38;8.50;;;3.05;;
43640;SDS011;72791;52.546;13.570;2023-12-20T12:50:07;7.68;;;2.50;;
43640;SDS011;72791;52.546;13.570;2023-12-20T12:52:34;5.55;;;2.90;;
43640;SDS011;72791;52.546;13.570;2023-12-20T12:55:00;7.13;;;2.88;;
43640;SDS011;72791;52.546;13.570;2023-12-20T12:57:26;5.72;;;2.78;;
43640;SDS011;72791;52.546;13.570;2023-12-20T12:59:54;10.57;;;3.08;;
43640;SDS011;72791;52.546;13.570;2023-12-20T13:02:20;7.85;;;2.90;;
43640;SDS011;72791;52.546;13.570;2023-12-20T13:04:46;8.60;;;3.25;;
43640;SDS011;72791;52.546;13.570;2023-12-20T13:07:14;10.25;;;3.60;;
43640;SDS011;72791;52.546;13.570;2023-12-20T13:09:41;9.05;;;2.90;;
43640;SDS011;72791;52.546;13.570;2023-12-20T13:12:08;9.23;;;2.88;;
43640;SDS011;72791;52.546;13.570;2023-12-20T13:14:34;13.48;;;3.20;;
43640;SDS011;72791;52.546;13.570;2023-12-20T13:17:02;6.43;;;3.53;;
43640;SDS011;72791;52.546;13.570;2023-12-20T13:19:28;14.18;;;3.25;;
43640;SDS011;72791;52.546;13.570;2023-12-20T13:21:55;7.47;;;3.58;;
43640;SDS011;72791;52.546;13.570;2023-12-20T13:24:21;10.95;;;3.00;;
43640;SDS011;72791;52.546;13.570;2023-12-20T13:26:48;9.93;;;3.75;;
43640;SDS011;72791;52.546;13.570;2023-12-20T13:29:13;8.88;;;3.67;;
43640;SDS011;72791;52.546;13.570;2023-12-20T13:31:39;10.98;;;2.45;;
43640;SDS011;72791;52.546;13.570;2023-12-20T13:34:05;7.43;;;4.10;;
43640;SDS011;72791;52.546;13.570;2023-12-20T13:36:31;6.25;;;2.10;;
43640;SDS011;72791;52.546;13.570;2023-12-20T13:38:58;4.25;;;1.50;;
43640;SDS011;72791;52.546;13.570;2023-12-20T13:41:25;8.30;;;1.65;;
43640;SDS011;72791;52.546;13.570;2023-12-20T13:43:51;2.67;;;1.20;;
43640;SDS011;72791;52.546;13.570;2023-12-20T13:46:16;4.53;;;1.10;;
43640;SDS011;72791;52.546;13.570;2023-12-20T13:48:42;4.47;;;1.30;;
43640;SDS011;72791;52.546;13.570;2023-12-20T13:51:08;3.65;;;0.93;;
43640;SDS011;72791;52.546;13.570;2023-12-20T13:53:34;4.82;;;1.30;;
43640;SDS011;72791;52.546;13.570;2023-12-20T13:55:59;1.85;;;0.75;;
43640;SDS011;72791;52.546;13.570;2023-12-20T13:58:25;1.08;;;0.88;;
43640;SDS011;72791;52.546;13.570;2023-12-20T14:00:51;2.20;;;1.08;;
43640;SDS011;72791;52.546;13.570;2023-12-20T14:03:17;1.83;;;0.93;;
43640;SDS011;72791;52.546;13.570;2023-12-20T14:05:45;5.70;;;1.05;;
43640;SDS011;72791;52.546;13.570;2023-12-20T14:08:11;2.15;;;0.70;;
43640;SDS011;72791;52.546;13.570;2023-12-20T14:10:37;2.40;;;1.00;;
43640;SDS011;72791;52.546;13.570;2023-12-20T14:13:05;0.85;;;0.70;;
43640;SDS011;72791;52.546;13.570;2023-12-20T14:15:30;2.30;;;1.05;;
43640;SDS011;72791;52.546;13.570;2023-12-20T14:18:02;1.77;;;0.80;;
43640;SDS011;72791;52.546;13.570;2023-12-20T14:20:31;2.08;;;1.08;;
43640;SDS011;72791;52.546;13.570;2023-12-20T14:22:57;4.97;;;1.40;;
43640;SDS011;72791;52.546;13.570;2023-12-20T14:25:23;1.95;;;0.90;;
43640;SDS011;72791;52.546;13.570;2023-12-20T14:27:48;5.57;;;1.50;;
43640;SDS011;72791;52.546;13.570;2023-12-20T14:30:14;1.77;;;1.05;;
43640;SDS011;72791;52.546;13.570;2023-12-20T14:32:41;1.10;;;0.85;;
43640;SDS011;72791;52.546;13.570;2023-12-20T14:35:07;1.27;;;0.85;;
43640;SDS011;72791;52.546;13.570;2023-12-20T14:37:35;2.67;;;1.00;;
43640;SDS011;72791;52.546;13.570;2023-12-20T14:40:09;2.90;;;1.00;;
43640;SDS011;72791;52.546;13.570;2023-12-20T14:42:36;2.85;;;1.00;;
43640;SDS011;72791;52.546;13.570;2023-12-20T14:45:03;2.35;;;1.05;;
43640;SDS011;72791;52.546;13.570;2023-12-20T14:47:32;1.92;;;0.95;;